createdAt,value
2019-01-30T00:00:59.245Z,1.60
2019-01-30T00:01:59.214Z,1.70
2019-01-30T00:02:59.188Z,1.60
2019-01-30T00:03:59.145Z,2.00
2019-01-30T00:04:59.141Z,2.00
2019-01-30T00:05:59.080Z,1.60
2019-01-30T00:06:59.064Z,1.90
2019-01-30T00:07:59.026Z,1.90
2019-01-30T00:08:59.005Z,1.90
2019-01-30T00:09:58.955Z,1.60
2019-01-30T00:10:58.923Z,1.80
2019-01-30T00:11:58.908Z,2.20
2019-01-30T00:12:58.939Z,1.90
2019-01-30T00:13:58.895Z,1.90
2019-01-30T00:14:58.804Z,1.70
2019-01-30T00:15:58.773Z,1.70
2019-01-30T00:16:58.738Z,1.50
2019-01-30T00:17:58.699Z,1.90
2019-01-30T00:18:58.663Z,1.30
2019-01-30T00:19:58.666Z,2.00
2019-01-30T00:20:58.618Z,1.50
2019-01-30T00:21:58.573Z,1.40
2019-01-30T00:22:58.544Z,1.30
2019-01-30T00:23:58.868Z,2.00
2019-01-30T00:24:58.493Z,2.10
2019-01-30T00:25:58.453Z,1.50
2019-01-30T00:26:58.506Z,1.50
2019-01-30T00:27:58.400Z,1.60
2019-01-30T00:28:58.369Z,2.40
2019-01-30T00:30:04.171Z,1.20
2019-01-30T00:30:58.301Z,1.80
2019-01-30T00:31:58.301Z,1.70
2019-01-30T00:32:58.246Z,1.50
2019-01-30T00:33:58.242Z,1.70
2019-01-30T00:34:58.189Z,2.00
2019-01-30T00:35:58.152Z,1.90
2019-01-30T00:36:58.106Z,1.80
2019-01-30T00:37:58.610Z,1.60
2019-01-30T00:38:58.065Z,1.90
2019-01-30T00:39:58.016Z,1.90
2019-01-30T00:40:57.989Z,1.50
2019-01-30T00:41:57.976Z,1.80
2019-01-30T00:42:57.937Z,1.60
2019-01-30T00:43:57.900Z,1.60
2019-01-30T00:44:57.868Z,1.30
2019-01-30T00:45:57.962Z,1.90
2019-01-30T00:46:57.829Z,1.90
2019-01-30T00:47:57.781Z,2.20
2019-01-30T00:48:57.719Z,2.00
2019-01-30T00:49:57.703Z,1.60
2019-01-30T00:50:57.672Z,1.90
2019-01-30T00:51:57.627Z,1.40
2019-01-30T00:52:57.591Z,1.80
2019-01-30T00:53:57.596Z,1.30
2019-01-30T00:54:57.546Z,1.70
2019-01-30T00:55:57.674Z,1.50
2019-01-30T00:56:57.488Z,1.80
2019-01-30T00:57:57.445Z,2.40
2019-01-30T00:58:57.433Z,1.60
2019-01-30T00:59:57.391Z,1.40
2019-01-30T01:00:58.297Z,1.60
2019-01-30T01:01:57.335Z,2.00
2019-01-30T01:02:57.317Z,1.70
2019-01-30T01:03:57.258Z,1.50
2019-01-30T01:04:57.234Z,1.90
2019-01-30T01:05:57.204Z,1.70
2019-01-30T01:06:57.148Z,1.30
2019-01-30T01:07:57.158Z,1.90
2019-01-30T01:08:57.105Z,2.20
2019-01-30T01:09:57.575Z,1.80
2019-01-30T01:10:57.040Z,1.80
2019-01-30T01:11:57.030Z,2.00
2019-01-30T01:12:56.995Z,1.90
2019-01-30T01:13:56.939Z,1.60
2019-01-30T01:14:56.912Z,1.60
2019-01-30T01:15:56.900Z,2.10
2019-01-30T01:16:56.918Z,1.60
2019-01-30T01:17:56.882Z,1.70
2019-01-30T01:18:56.808Z,1.60
2019-01-30T01:19:56.760Z,1.90
2019-01-30T01:20:56.716Z,1.90
2019-01-30T01:21:56.671Z,1.70
2019-01-30T01:22:56.658Z,1.90
2019-01-30T01:23:56.634Z,1.70
2019-01-30T01:24:56.598Z,1.70
2019-01-30T01:25:56.563Z,1.60
2019-01-30T01:26:56.530Z,2.10
2019-01-30T01:27:56.845Z,1.80
2019-01-30T01:28:56.484Z,1.90
2019-01-30T01:29:56.445Z,1.70
2019-01-30T01:30:56.401Z,1.90
2019-01-30T01:31:56.379Z,1.90
2019-01-30T01:32:56.339Z,1.50
2019-01-30T01:33:56.705Z,1.40
2019-01-30T01:34:56.293Z,1.50
2019-01-30T01:35:56.258Z,1.90
2019-01-30T01:36:56.222Z,1.80
2019-01-30T01:37:56.189Z,1.40
2019-01-30T01:38:56.133Z,1.70
2019-01-30T01:39:56.531Z,2.00
2019-01-30T01:40:56.087Z,1.90
2019-01-30T01:41:56.035Z,2.10
2019-01-30T01:42:56.026Z,2.10
2019-01-30T01:43:55.983Z,1.50
2019-01-30T01:44:55.938Z,2.20
2019-01-30T01:45:55.938Z,1.80
2019-01-30T01:46:55.895Z,1.90
2019-01-30T01:47:55.883Z,2.20
2019-01-30T01:48:55.843Z,1.90
2019-01-30T01:49:55.797Z,1.40
2019-01-30T01:50:55.757Z,1.50
2019-01-30T01:51:55.726Z,2.00
2019-01-30T01:52:55.707Z,1.50
2019-01-30T01:53:55.671Z,1.60
2019-01-30T01:54:55.630Z,2.00
2019-01-30T01:55:55.750Z,1.50
2019-01-30T01:56:55.586Z,1.50
2019-01-30T01:57:55.565Z,1.80
2019-01-30T01:58:55.520Z,1.80
2019-01-30T01:59:55.478Z,1.60
2019-01-30T02:00:55.453Z,1.20
2019-01-30T02:01:55.837Z,1.90
2019-01-30T02:02:55.389Z,1.80
2019-01-30T02:03:55.346Z,1.50
2019-01-30T02:04:55.326Z,1.30
2019-01-30T02:05:55.353Z,1.90
2019-01-30T02:06:55.259Z,1.70
2019-01-30T02:07:55.367Z,1.40
2019-01-30T02:08:55.163Z,1.70
2019-01-30T02:09:55.142Z,1.40
2019-01-30T02:10:55.129Z,1.60
2019-01-30T02:11:55.109Z,1.30
2019-01-30T02:12:55.109Z,1.30
2019-01-30T02:13:55.019Z,1.70
2019-01-30T02:14:54.975Z,1.70
2019-01-30T02:15:54.948Z,1.50
2019-01-30T02:16:54.932Z,1.40
2019-01-30T02:17:54.897Z,1.80
2019-01-30T02:18:54.941Z,1.70
2019-01-30T02:19:54.838Z,1.50
2019-01-30T02:20:54.809Z,1.40
2019-01-30T02:21:54.757Z,1.90
2019-01-30T02:22:54.745Z,1.80
2019-01-30T02:23:54.720Z,1.40
2019-01-30T02:24:54.660Z,1.60
2019-01-30T02:25:54.629Z,1.50
2019-01-30T02:26:54.603Z,1.70
2019-01-30T02:27:54.579Z,1.40
2019-01-30T02:28:54.792Z,1.30
2019-01-30T02:29:54.570Z,1.70
2019-01-30T02:30:54.475Z,1.50
2019-01-30T02:31:54.432Z,1.30
2019-01-30T02:32:54.403Z,1.80
2019-01-30T02:33:54.370Z,1.70
2019-01-30T02:34:54.498Z,1.50
2019-01-30T02:35:54.304Z,1.50
2019-01-30T02:36:54.344Z,1.50
2019-01-30T02:37:54.258Z,1.30
2019-01-30T02:38:54.201Z,1.80
2019-01-30T02:39:54.270Z,1.30
2019-01-30T02:40:54.146Z,1.50
2019-01-30T02:41:54.151Z,1.80
2019-01-30T02:42:54.088Z,1.40
2019-01-30T02:43:54.054Z,1.40
2019-01-30T02:44:54.032Z,1.40
2019-01-30T02:45:54.003Z,1.60
2019-01-30T02:46:53.968Z,1.80
2019-01-30T02:47:53.906Z,1.30
2019-01-30T02:48:53.894Z,1.60
2019-01-30T02:49:53.852Z,1.50
2019-01-30T02:50:53.895Z,1.70
2019-01-30T02:51:53.809Z,2.00
2019-01-30T02:52:53.761Z,1.40
2019-01-30T02:53:53.734Z,2.00
2019-01-30T02:54:53.710Z,1.60
2019-01-30T02:55:53.657Z,1.30
2019-01-30T02:56:53.643Z,1.50
2019-01-30T02:57:53.613Z,1.80
2019-01-30T02:58:53.567Z,1.60
2019-01-30T02:59:53.547Z,1.30
2019-01-30T03:00:59.335Z,1.80
2019-01-30T03:01:53.496Z,1.20
2019-01-30T03:02:53.448Z,1.60
2019-01-30T03:03:53.419Z,1.50
2019-01-30T03:04:53.369Z,1.80
2019-01-30T03:05:53.337Z,1.80
2019-01-30T03:06:53.582Z,2.30
2019-01-30T03:07:53.257Z,1.90
2019-01-30T03:08:53.271Z,1.40
2019-01-30T03:09:53.214Z,1.70
2019-01-30T03:10:53.187Z,2.40
2019-01-30T03:11:53.152Z,1.50
2019-01-30T03:12:53.109Z,1.40
2019-01-30T03:13:53.085Z,1.90
2019-01-30T03:14:53.047Z,1.60
2019-01-30T03:15:53.015Z,1.50
2019-01-30T03:16:52.988Z,1.60
2019-01-30T03:17:52.985Z,1.60
2019-01-30T03:18:52.920Z,1.80
2019-01-30T03:19:52.887Z,1.50
2019-01-30T03:20:52.860Z,1.90
2019-01-30T03:21:52.871Z,1.60
2019-01-30T03:22:52.797Z,1.70
2019-01-30T03:23:52.755Z,1.60
2019-01-30T03:24:52.706Z,1.40
2019-01-30T03:25:52.723Z,1.80
2019-01-30T03:26:52.643Z,1.40
2019-01-30T03:27:52.823Z,1.30
2019-01-30T03:28:52.604Z,1.70
2019-01-30T03:29:52.536Z,1.90
2019-01-30T03:30:52.509Z,1.60
2019-01-30T03:31:52.511Z,1.50
2019-01-30T03:32:52.469Z,1.50
2019-01-30T03:33:52.679Z,1.90
2019-01-30T03:34:52.403Z,2.00
2019-01-30T03:35:52.423Z,1.30
2019-01-30T03:36:52.334Z,1.40
2019-01-30T03:37:52.284Z,1.70
2019-01-30T03:38:52.269Z,2.00
2019-01-30T03:39:52.239Z,1.40
2019-01-30T03:40:52.205Z,1.30
2019-01-30T03:41:52.201Z,1.40
2019-01-30T03:42:52.137Z,2.00
2019-01-30T03:43:52.092Z,1.80
2019-01-30T03:44:52.061Z,1.50
2019-01-30T03:45:52.030Z,1.50
2019-01-30T03:46:52.011Z,2.20
2019-01-30T03:47:51.964Z,1.60
2019-01-30T03:48:51.939Z,1.40
2019-01-30T03:49:51.908Z,1.40
2019-01-30T03:50:51.873Z,1.70
2019-01-30T03:51:51.853Z,2.10
2019-01-30T03:52:51.799Z,1.50
2019-01-30T03:53:51.760Z,1.70
2019-01-30T03:54:51.745Z,1.60
2019-01-30T03:55:51.728Z,1.60
2019-01-30T03:56:51.698Z,1.50
2019-01-30T03:57:51.656Z,1.50
2019-01-30T03:58:51.615Z,1.50
2019-01-30T03:59:51.783Z,1.90
2019-01-30T04:00:51.554Z,1.40
2019-01-30T04:01:51.539Z,1.70
2019-01-30T04:02:51.475Z,1.40
2019-01-30T04:03:51.441Z,1.60
2019-01-30T04:04:51.415Z,1.90
2019-01-30T04:05:51.744Z,2.20
2019-01-30T04:06:51.373Z,1.30
2019-01-30T04:07:51.308Z,1.50
2019-01-30T04:08:51.289Z,1.50
2019-01-30T04:09:51.267Z,1.60
2019-01-30T04:10:51.226Z,1.70
2019-01-30T04:11:51.551Z,1.40
2019-01-30T04:12:51.146Z,1.50
2019-01-30T04:13:51.110Z,1.70
2019-01-30T04:14:51.083Z,1.50
2019-01-30T04:15:51.046Z,1.70
2019-01-30T04:16:51.024Z,1.80
2019-01-30T04:17:50.982Z,1.60
2019-01-30T04:18:50.954Z,1.20
2019-01-30T04:19:50.918Z,1.80
2019-01-30T04:20:50.896Z,1.40
2019-01-30T04:21:50.842Z,1.40
2019-01-30T04:22:50.830Z,1.50
2019-01-30T04:23:50.796Z,1.80
2019-01-30T04:24:50.759Z,1.90
2019-01-30T04:25:50.732Z,1.90
2019-01-30T04:26:50.714Z,1.60
2019-01-30T04:27:50.993Z,1.40
2019-01-30T04:28:50.631Z,1.40
2019-01-30T04:29:50.596Z,1.60
2019-01-30T04:30:50.558Z,1.40
2019-01-30T04:31:50.528Z,1.50
2019-01-30T04:32:50.506Z,1.60
2019-01-30T04:33:50.657Z,2.10
2019-01-30T04:34:50.414Z,1.70
2019-01-30T04:35:50.407Z,1.50
2019-01-30T04:36:50.342Z,1.40
2019-01-30T04:37:50.322Z,1.60
2019-01-30T04:38:50.308Z,1.60
2019-01-30T04:39:50.274Z,1.60
2019-01-30T04:40:50.231Z,1.40
2019-01-30T04:41:50.209Z,1.90
2019-01-30T04:42:50.164Z,1.80
2019-01-30T04:43:50.124Z,1.50
2019-01-30T04:44:50.112Z,1.50
2019-01-30T04:45:50.082Z,1.80
2019-01-30T04:46:50.039Z,2.00
2019-01-30T04:47:50.004Z,1.40
2019-01-30T04:48:49.974Z,1.70
2019-01-30T04:49:49.947Z,1.60
2019-01-30T04:50:49.910Z,1.70
2019-01-30T04:51:49.869Z,1.90
2019-01-30T04:52:49.927Z,1.50
2019-01-30T04:53:49.806Z,1.50
2019-01-30T04:54:49.808Z,1.60
2019-01-30T04:55:49.726Z,1.70
2019-01-30T04:56:49.716Z,1.50
2019-01-30T04:57:49.655Z,1.20
2019-01-30T04:58:49.645Z,1.70
2019-01-30T04:59:49.737Z,1.50
2019-01-30T05:00:49.580Z,1.90
2019-01-30T05:01:50.113Z,1.20
2019-01-30T05:02:49.511Z,1.60
2019-01-30T05:03:49.463Z,1.50
2019-01-30T05:04:49.423Z,1.30
2019-01-30T05:05:49.500Z,1.60
2019-01-30T05:06:49.357Z,1.40
2019-01-30T05:07:49.349Z,1.90
2019-01-30T05:08:49.323Z,1.60
2019-01-30T05:09:49.267Z,1.90
2019-01-30T05:10:49.225Z,1.60
2019-01-30T05:11:49.201Z,1.60
2019-01-30T05:12:49.178Z,1.60
2019-01-30T05:13:49.147Z,1.40
2019-01-30T05:14:49.112Z,1.40
2019-01-30T05:15:49.080Z,2.00
2019-01-30T05:16:49.048Z,2.10
2019-01-30T05:17:49.021Z,1.50
2019-01-30T05:18:48.978Z,1.40
2019-01-30T05:19:48.949Z,1.70
2019-01-30T05:20:48.897Z,1.90
2019-01-30T05:21:48.872Z,1.40
2019-01-30T05:22:48.838Z,1.80
2019-01-30T05:23:48.799Z,1.70
2019-01-30T05:24:48.779Z,1.90
2019-01-30T05:25:48.738Z,2.00
2019-01-30T05:26:48.862Z,1.40
2019-01-30T05:27:48.692Z,1.50
2019-01-30T05:28:48.639Z,2.10
2019-01-30T05:29:48.601Z,1.50
2019-01-30T05:30:48.577Z,1.30
2019-01-30T05:31:48.539Z,2.10
2019-01-30T05:32:48.670Z,1.60
2019-01-30T05:33:48.465Z,2.00
2019-01-30T05:34:48.446Z,2.20
2019-01-30T05:35:48.419Z,1.60
2019-01-30T05:36:48.387Z,1.90
2019-01-30T05:37:51.131Z,1.80
2019-01-30T05:38:48.312Z,2.80
2019-01-30T05:39:48.280Z,2.50
2019-01-30T05:40:48.255Z,2.30
2019-01-30T05:41:48.217Z,2.10
2019-01-30T05:42:48.187Z,2.00
2019-01-30T05:43:48.149Z,2.30
2019-01-30T05:44:48.117Z,2.30
2019-01-30T05:45:48.077Z,2.70
2019-01-30T05:46:48.043Z,2.70
2019-01-30T05:47:48.016Z,2.50
2019-01-30T05:48:48.031Z,2.30
2019-01-30T05:49:47.938Z,2.30
2019-01-30T05:50:47.960Z,2.50
2019-01-30T05:51:47.895Z,2.30
2019-01-30T05:52:47.838Z,2.70
2019-01-30T05:53:47.851Z,2.30
2019-01-30T05:54:47.782Z,3.00
2019-01-30T05:55:47.753Z,2.30
2019-01-30T05:56:47.720Z,2.70
2019-01-30T05:57:47.682Z,2.20
2019-01-30T05:58:47.657Z,2.60
2019-01-30T05:59:47.630Z,2.70
2019-01-30T06:00:47.580Z,2.60
2019-01-30T06:01:47.538Z,2.10
2019-01-30T06:02:47.518Z,2.50
2019-01-30T06:03:47.482Z,2.40
2019-01-30T06:04:47.467Z,2.10
2019-01-30T06:05:47.431Z,2.20
2019-01-30T06:06:47.379Z,2.40
2019-01-30T06:07:47.338Z,2.60
2019-01-30T06:08:47.313Z,2.50
2019-01-30T06:09:47.281Z,2.50
2019-01-30T06:10:47.239Z,1.90
2019-01-30T06:11:47.210Z,2.00
2019-01-30T06:12:47.192Z,2.30
2019-01-30T06:13:47.148Z,2.70
2019-01-30T06:14:47.123Z,2.20
2019-01-30T06:15:47.100Z,2.10
2019-01-30T06:16:47.047Z,2.40
2019-01-30T06:17:47.011Z,2.20
2019-01-30T06:18:46.991Z,2.30
2019-01-30T06:19:46.971Z,2.10
2019-01-30T06:20:46.917Z,2.10
2019-01-30T06:21:46.889Z,1.90
2019-01-30T06:22:46.866Z,2.40
2019-01-30T06:23:46.827Z,2.10
2019-01-30T06:24:46.773Z,1.90
2019-01-30T06:25:46.753Z,2.10
2019-01-30T06:26:46.726Z,2.20
2019-01-30T06:27:46.706Z,1.90
2019-01-30T06:28:46.664Z,2.20
2019-01-30T06:29:46.759Z,2.00
2019-01-30T06:30:46.589Z,2.20
2019-01-30T06:31:46.563Z,1.90
2019-01-30T06:32:46.524Z,2.30
2019-01-30T06:33:46.487Z,2.10
2019-01-30T06:34:46.459Z,2.50
2019-01-30T06:35:46.630Z,2.40
2019-01-30T06:36:46.381Z,2.30
2019-01-30T06:37:46.344Z,1.90
2019-01-30T06:38:46.328Z,2.40
2019-01-30T06:39:46.287Z,1.90
2019-01-30T06:40:46.254Z,2.00
2019-01-30T06:41:46.225Z,2.10
2019-01-30T06:42:46.180Z,2.20
2019-01-30T06:43:46.143Z,2.70
2019-01-30T06:44:46.119Z,1.90
2019-01-30T06:45:46.090Z,1.80
2019-01-30T06:47:46.144Z,1.40
2019-01-30T06:48:45.995Z,2.50
2019-01-30T06:49:45.943Z,2.10
2019-01-30T06:50:45.965Z,2.30
2019-01-30T06:51:45.887Z,2.10
2019-01-30T06:52:45.856Z,2.40
2019-01-30T06:53:45.815Z,2.00
2019-01-30T06:54:45.794Z,1.80
2019-01-30T06:55:45.750Z,2.70
2019-01-30T06:56:45.716Z,2.30
2019-01-30T06:57:45.698Z,2.10
2019-01-30T06:58:45.655Z,1.90
2019-01-30T06:59:45.611Z,2.00
2019-01-30T07:00:45.586Z,2.30
2019-01-30T07:01:45.549Z,2.10
2019-01-30T07:02:45.509Z,2.20
2019-01-30T07:03:45.476Z,2.30
2019-01-30T07:04:45.446Z,2.10
2019-01-30T07:05:45.419Z,2.20
2019-01-30T07:06:45.387Z,1.90
2019-01-30T07:07:45.348Z,1.80
2019-01-30T07:08:45.334Z,2.10
2019-01-30T07:09:45.274Z,2.50
2019-01-30T07:10:45.256Z,2.20
2019-01-30T07:11:45.217Z,1.90
2019-01-30T07:12:45.358Z,2.40
2019-01-30T07:13:45.179Z,1.90
2019-01-30T07:14:45.127Z,1.80
2019-01-30T07:15:45.100Z,2.00
2019-01-30T07:16:45.047Z,1.90
2019-01-30T07:17:45.029Z,2.20
2019-01-30T07:18:45.047Z,2.10
2019-01-30T07:19:44.956Z,2.30
2019-01-30T07:20:44.927Z,1.90
2019-01-30T07:21:44.891Z,2.00
2019-01-30T07:23:44.826Z,1.20
2019-01-30T07:24:44.791Z,1.90
2019-01-30T07:25:44.758Z,1.80
2019-01-30T07:26:44.717Z,2.50
2019-01-30T07:27:44.700Z,2.20
2019-01-30T07:28:44.733Z,2.20
2019-01-30T07:29:44.621Z,2.00
2019-01-30T07:30:44.609Z,2.00
2019-01-30T07:31:44.539Z,1.70
2019-01-30T07:32:44.520Z,2.00
2019-01-30T07:33:44.482Z,2.00
2019-01-30T07:34:44.456Z,2.00
2019-01-30T07:35:44.417Z,1.80
2019-01-30T07:36:44.383Z,2.10
2019-01-30T07:37:44.344Z,1.80
2019-01-30T07:38:44.327Z,1.90
2019-01-30T07:39:44.275Z,2.10
2019-01-30T07:40:44.251Z,2.20
2019-01-30T07:41:44.205Z,2.00
2019-01-30T07:42:44.195Z,1.80
2019-01-30T07:43:44.142Z,1.60
2019-01-30T07:44:50.508Z,2.10
2019-01-30T07:45:44.077Z,1.60
2019-01-30T07:46:44.057Z,1.70
2019-01-30T07:47:44.026Z,1.90
2019-01-30T07:48:43.976Z,1.90
2019-01-30T07:49:43.939Z,2.10
2019-01-30T07:51:43.884Z,1.30
2019-01-30T07:52:43.840Z,1.70
2019-01-30T07:53:43.804Z,2.30
2019-01-30T07:54:43.774Z,2.30
2019-01-30T07:55:44.111Z,1.80
2019-01-30T07:56:43.712Z,1.90
2019-01-30T07:57:43.696Z,1.90
2019-01-30T07:58:43.661Z,1.90
2019-01-30T07:59:43.621Z,2.40
2019-01-30T08:00:43.595Z,1.70
2019-01-30T08:01:43.692Z,2.10
2019-01-30T08:02:52.636Z,2.00
2019-01-30T08:03:43.488Z,2.50
2019-01-30T08:04:43.464Z,2.20
2019-01-30T08:05:43.419Z,2.00
2019-01-30T08:06:43.384Z,2.00
2019-01-30T08:07:43.354Z,2.30
2019-01-30T08:08:43.317Z,2.10
2019-01-30T08:09:43.277Z,1.90
2019-01-30T08:10:43.249Z,2.10
2019-01-30T08:11:43.278Z,2.10
2019-01-30T08:12:43.186Z,1.90
2019-01-30T08:13:43.152Z,2.70
2019-01-30T08:14:43.111Z,1.80
2019-01-30T08:15:43.072Z,1.80
2019-01-30T08:16:43.193Z,2.10
2019-01-30T08:17:43.017Z,1.80
2019-01-30T08:18:42.964Z,2.00
2019-01-30T08:19:42.957Z,2.10
2019-01-30T08:20:42.938Z,2.30
2019-01-30T08:21:42.865Z,1.90
2019-01-30T08:22:42.943Z,2.20
2019-01-30T08:23:42.797Z,1.90
2019-01-30T08:24:43.085Z,2.00
2019-01-30T08:25:42.754Z,2.10
2019-01-30T08:26:42.776Z,2.30
2019-01-30T08:27:43.098Z,2.00
2019-01-30T08:28:42.802Z,1.80
2019-01-30T08:29:42.915Z,1.60
2019-01-30T08:30:42.696Z,2.30
2019-01-30T08:31:42.909Z,2.10
2019-01-30T08:32:42.603Z,2.10
2019-01-30T08:33:42.524Z,2.10
2019-01-30T08:34:42.459Z,1.60
2019-01-30T08:35:42.417Z,2.20
2019-01-30T08:36:42.367Z,2.40
2019-01-30T08:37:42.347Z,1.90
2019-01-30T08:38:42.300Z,1.90
2019-01-30T08:39:42.276Z,1.90
2019-01-30T08:40:42.260Z,2.30
2019-01-30T08:41:42.192Z,2.30
2019-01-30T08:42:42.163Z,2.00
2019-01-30T08:43:42.150Z,1.70
2019-01-30T08:44:47.134Z,2.80
2019-01-30T08:45:42.075Z,2.20
2019-01-30T08:46:42.036Z,2.10
2019-01-30T08:47:42.003Z,1.90
2019-01-30T08:48:41.968Z,2.10
2019-01-30T08:49:41.943Z,1.90
2019-01-30T08:50:41.891Z,2.30
2019-01-30T08:51:41.863Z,1.90
2019-01-30T08:52:41.891Z,1.90
2019-01-30T08:53:41.799Z,2.60
2019-01-30T08:54:41.927Z,2.10
2019-01-30T08:55:41.740Z,1.80
2019-01-30T08:56:52.343Z,2.00
2019-01-30T08:57:41.668Z,1.90
2019-01-30T08:58:41.651Z,2.50
2019-01-30T08:59:41.599Z,2.40
2019-01-30T09:00:41.710Z,2.00
2019-01-30T09:01:41.529Z,1.80
2019-01-30T09:02:41.516Z,2.10
2019-01-30T09:03:41.457Z,2.00
2019-01-30T09:04:41.432Z,2.10
2019-01-30T09:05:41.390Z,1.70
2019-01-30T09:06:41.346Z,1.80
2019-01-30T09:07:44.437Z,2.50
2019-01-30T09:08:41.300Z,2.20
2019-01-30T09:09:41.251Z,1.90
2019-01-30T09:10:41.239Z,1.80
2019-01-30T09:11:41.182Z,2.00
2019-01-30T09:12:41.169Z,2.00
2019-01-30T09:13:41.121Z,2.20
2019-01-30T09:14:41.103Z,2.00
2019-01-30T09:15:41.057Z,1.80
2019-01-30T09:16:41.024Z,2.10
2019-01-30T09:17:40.990Z,2.30
2019-01-30T09:18:40.967Z,2.40
2019-01-30T09:19:40.916Z,2.00
2019-01-30T09:20:40.944Z,1.80
2019-01-30T09:21:40.847Z,2.00
2019-01-30T09:22:40.822Z,1.80
2019-01-30T09:23:40.773Z,2.00
2019-01-30T09:24:40.757Z,1.90
2019-01-30T09:25:40.731Z,1.80
2019-01-30T09:26:40.677Z,2.50
2019-01-30T09:27:40.656Z,2.20
2019-01-30T09:28:40.620Z,2.10
2019-01-30T09:29:40.571Z,1.80
2019-01-30T09:30:40.551Z,2.40
2019-01-30T09:31:40.513Z,2.10
2019-01-30T09:32:40.515Z,1.80
2019-01-30T09:33:40.454Z,2.20
2019-01-30T09:34:40.416Z,1.80
2019-01-30T09:35:40.380Z,1.70
2019-01-30T09:37:40.304Z,1.00
2019-01-30T09:38:40.270Z,2.00
2019-01-30T09:39:40.237Z,2.20
2019-01-30T09:40:40.203Z,1.50
2019-01-30T09:41:40.166Z,2.00
2019-01-30T09:42:40.131Z,1.80
2019-01-30T09:43:40.128Z,1.50
2019-01-30T09:44:40.088Z,1.80
2019-01-30T09:45:40.105Z,2.10
2019-01-30T09:46:40.148Z,2.30
2019-01-30T09:47:39.981Z,2.10
2019-01-30T09:48:39.939Z,1.60
2019-01-30T09:49:39.941Z,1.60
2019-01-30T09:50:39.867Z,2.20
2019-01-30T09:51:39.840Z,1.90
2019-01-30T09:52:39.953Z,1.90
2019-01-30T09:53:39.786Z,1.80
2019-01-30T09:54:39.728Z,1.70
2019-01-30T09:55:39.713Z,1.70
2019-01-30T09:56:39.681Z,2.30
2019-01-30T09:57:39.645Z,2.40
2019-01-30T09:58:40.000Z,1.80
2019-01-30T09:59:39.567Z,1.70
2019-01-30T10:00:39.534Z,1.90
2019-01-30T10:01:39.494Z,1.70
2019-01-30T10:02:39.464Z,1.40
2019-01-30T10:03:39.436Z,2.00
2019-01-30T10:04:39.445Z,1.80
2019-01-30T10:05:39.381Z,2.00
2019-01-30T10:06:39.354Z,1.50
2019-01-30T10:07:39.324Z,1.90
2019-01-30T10:08:39.290Z,2.30
2019-01-30T10:09:39.249Z,2.30
2019-01-30T10:10:39.203Z,1.70
2019-01-30T10:11:39.178Z,2.00
2019-01-30T10:12:39.153Z,2.20
2019-01-30T10:13:39.115Z,2.20
2019-01-30T10:14:39.287Z,1.90
2019-01-30T10:15:39.043Z,1.80
2019-01-30T10:16:39.107Z,2.20
2019-01-30T10:17:38.993Z,1.80
2019-01-30T10:18:38.937Z,1.60
2019-01-30T10:19:41.555Z,1.70
2019-01-30T10:20:38.878Z,1.80
2019-01-30T10:21:38.853Z,2.00
2019-01-30T10:22:38.815Z,1.70
2019-01-30T10:23:38.774Z,1.60
2019-01-30T10:24:38.753Z,2.00
2019-01-30T10:25:38.721Z,1.80
2019-01-30T10:26:38.692Z,1.60
2019-01-30T10:27:38.646Z,2.10
2019-01-30T10:28:38.631Z,2.00
2019-01-30T10:29:38.595Z,2.00
2019-01-30T10:30:38.756Z,1.60
2019-01-30T10:31:38.546Z,1.90
2019-01-30T10:32:38.497Z,2.20
2019-01-30T10:33:46.299Z,1.60
2019-01-30T10:34:38.433Z,1.80
2019-01-30T10:35:38.407Z,1.70
2019-01-30T10:36:38.365Z,1.90
2019-01-30T10:37:38.323Z,1.70
2019-01-30T10:38:38.311Z,1.90
2019-01-30T10:39:38.251Z,1.60
2019-01-30T10:40:38.241Z,1.50
2019-01-30T10:41:38.186Z,2.10
2019-01-30T10:42:38.183Z,1.60
2019-01-30T10:43:38.120Z,1.50
2019-01-30T10:44:38.103Z,1.90
2019-01-30T10:45:38.419Z,1.80
2019-01-30T10:47:38.009Z,1.30
2019-01-30T10:48:38.213Z,1.90
2019-01-30T10:49:37.957Z,2.20
2019-01-30T10:50:37.912Z,1.50
2019-01-30T10:51:38.286Z,1.50
2019-01-30T10:52:37.867Z,1.30
2019-01-30T10:53:37.823Z,2.10
2019-01-30T10:54:37.800Z,1.50
2019-01-30T10:55:37.760Z,1.40
2019-01-30T10:56:37.735Z,2.20
2019-01-30T10:57:37.896Z,1.60
2019-01-30T10:58:37.668Z,1.50
2019-01-30T10:59:37.635Z,1.70
2019-01-30T11:00:37.601Z,2.00
2019-01-30T11:01:37.566Z,1.50
2019-01-30T11:02:37.522Z,1.70
2019-01-30T11:03:37.670Z,2.10
2019-01-30T11:04:37.470Z,1.60
2019-01-30T11:05:37.424Z,1.50
2019-01-30T11:06:37.425Z,1.70
2019-01-30T11:07:37.391Z,1.90
2019-01-30T11:08:37.368Z,1.30
2019-01-30T11:10:37.288Z,1.20
2019-01-30T11:11:37.251Z,1.60
2019-01-30T11:12:37.237Z,1.30
2019-01-30T11:13:37.202Z,1.60
2019-01-30T11:14:37.145Z,1.50
2019-01-30T11:15:37.121Z,1.60
2019-01-30T11:16:37.101Z,1.50
2019-01-30T11:17:37.077Z,1.70
2019-01-30T11:18:37.026Z,1.80
2019-01-30T11:19:37.016Z,1.50
2019-01-30T11:20:36.951Z,1.70
2019-01-30T11:21:36.934Z,1.80
2019-01-30T11:22:36.921Z,1.30
2019-01-30T11:23:36.891Z,1.50
2019-01-30T11:24:37.053Z,1.30
2019-01-30T11:25:36.829Z,1.70
2019-01-30T11:26:36.798Z,1.40
2019-01-30T11:27:36.769Z,2.00
2019-01-30T11:28:36.767Z,1.60
2019-01-30T11:29:36.690Z,1.90
2019-01-30T11:30:36.801Z,1.60
2019-01-30T11:31:36.624Z,1.80
2019-01-30T11:32:36.606Z,1.60
2019-01-30T11:33:36.575Z,1.40
2019-01-30T11:34:36.547Z,1.50
2019-01-30T11:35:36.520Z,1.90
2019-01-30T11:36:36.622Z,1.20
2019-01-30T11:37:36.463Z,1.20
2019-01-30T11:38:36.427Z,1.40
2019-01-30T11:39:36.397Z,1.50
2019-01-30T11:40:36.357Z,1.10
2019-01-30T11:41:36.638Z,1.80
2019-01-30T11:42:36.309Z,1.40
2019-01-30T11:43:36.272Z,1.40
2019-01-30T11:44:36.249Z,1.40
2019-01-30T11:45:36.206Z,1.60
2019-01-30T11:46:36.196Z,1.50
2019-01-30T11:47:36.142Z,1.60
2019-01-30T11:48:36.134Z,1.50
2019-01-30T11:49:36.086Z,1.40
2019-01-30T11:50:36.068Z,1.40
2019-01-30T11:51:36.037Z,1.80
2019-01-30T11:52:35.993Z,1.70
2019-01-30T11:53:35.971Z,1.50
2019-01-30T11:54:38.949Z,1.90
2019-01-30T11:55:35.907Z,1.50
2019-01-30T11:56:35.998Z,1.40
2019-01-30T11:57:36.019Z,1.50
2019-01-30T11:58:35.815Z,1.80
2019-01-30T11:59:35.798Z,1.30
2019-01-30T12:00:35.759Z,1.80
2019-01-30T12:01:35.738Z,1.60
2019-01-30T12:02:35.701Z,1.40
2019-01-30T12:03:36.030Z,1.80
2019-01-30T12:04:35.638Z,1.70
2019-01-30T12:05:35.626Z,1.40
2019-01-30T12:06:35.650Z,1.80
2019-01-30T12:07:35.559Z,1.40
2019-01-30T12:08:35.511Z,1.20
2019-01-30T12:10:35.463Z,0.60
2019-01-30T12:11:35.443Z,1.50
2019-01-30T12:12:35.414Z,1.40
2019-01-30T12:13:35.356Z,1.20
2019-01-30T12:14:35.352Z,1.60
2019-01-30T12:15:35.318Z,1.30
2019-01-30T12:16:35.330Z,1.70
2019-01-30T12:17:35.257Z,1.70
2019-01-30T12:18:35.239Z,1.10
2019-01-30T12:19:35.205Z,1.10
2019-01-30T12:20:35.168Z,1.50
2019-01-30T12:21:35.166Z,1.20
2019-01-30T12:22:35.164Z,1.50
2019-01-30T12:23:35.102Z,1.00
2019-01-30T12:24:35.097Z,1.10
2019-01-30T12:25:35.041Z,1.30
2019-01-30T12:26:35.009Z,1.60
2019-01-30T12:27:34.993Z,1.80
2019-01-30T12:28:34.954Z,1.60
2019-01-30T12:29:35.009Z,1.90
2019-01-30T12:30:35.096Z,1.50
2019-01-30T12:31:34.845Z,2.20
2019-01-30T12:32:34.823Z,2.40
2019-01-30T12:33:34.797Z,1.80
2019-01-30T12:34:34.772Z,1.70
2019-01-30T12:35:34.758Z,2.10
2019-01-30T12:36:34.731Z,1.60
2019-01-30T12:37:34.725Z,1.70
2019-01-30T12:38:34.728Z,2.00
2019-01-30T12:39:34.634Z,1.50
2019-01-30T12:40:34.606Z,1.70
2019-01-30T12:41:35.821Z,1.70
2019-01-30T12:42:34.544Z,1.40
2019-01-30T12:43:34.526Z,1.80
2019-01-30T12:44:34.481Z,1.60
2019-01-30T12:45:34.463Z,1.10
2019-01-30T12:46:34.494Z,1.70
2019-01-30T12:47:34.396Z,1.40
2019-01-30T12:48:34.386Z,1.30
2019-01-30T12:49:34.340Z,1.40
2019-01-30T12:50:34.323Z,1.20
2019-01-30T12:51:36.204Z,1.00
2019-01-30T12:52:34.259Z,1.30
2019-01-30T12:53:34.829Z,1.20
2019-01-30T12:54:34.560Z,0.90
2019-01-30T12:55:35.373Z,1.00
2019-01-30T12:56:34.142Z,1.20
2019-01-30T12:57:34.107Z,1.00
2019-01-30T12:58:34.082Z,1.80
2019-01-30T12:59:34.080Z,1.10
2019-01-30T13:00:34.030Z,1.30
2019-01-30T13:02:33.972Z,0.40
2019-01-30T13:03:33.954Z,1.90
2019-01-30T13:04:38.915Z,24.40
2019-01-30T13:05:33.894Z,27.40
2019-01-30T13:06:33.872Z,52.60
2019-01-30T13:07:33.820Z,52.20
2019-01-30T13:08:33.803Z,59.10
2019-01-30T13:09:33.786Z,38.80
2019-01-30T13:10:33.755Z,40.70
2019-01-30T13:11:33.719Z,28.00
2019-01-30T13:12:33.701Z,21.20
2019-01-30T13:13:33.646Z,15.10
2019-01-30T13:14:33.618Z,15.60
2019-01-30T13:15:33.615Z,11.20
2019-01-30T13:16:33.576Z,8.80
2019-01-30T13:17:33.730Z,6.50
2019-01-30T13:18:33.558Z,5.60
2019-01-30T13:19:33.512Z,4.60
2019-01-30T13:20:33.478Z,3.50
2019-01-30T13:21:33.450Z,2.80
2019-01-30T13:22:33.419Z,2.00
2019-01-30T13:23:33.400Z,2.20
2019-01-30T13:24:33.378Z,2.30
2019-01-30T13:25:33.326Z,1.80
2019-01-30T13:26:33.326Z,1.40